ไทเป, ไต้หวัน

03:51 PM CST วัน มกราคม 30, 2015 (GMT +0800)
ITAIPEIT2 | Change Station
CLOSE
Current Station
Personal Weather Stations
Location: Taipei Da'An, Taiwan
Elevation: 30 ft
Nearby Weather Stations

Elev 30 ft 25.03 °N, 121.53 °E | Updated 1 minute ago

Mostly Cloudy
มีเมฆคลุมเป็นส่วนใหญ่
61.0 ฟาเรนไฮน์
Feels Like 61.0 ฟาเรนไฮน์
N
4.0
ลม ความผันแปร ลม from ทางทิศตะวันออกเฉียงเหนือ
Gusts 17.0 mph

วันนี้
High -- | Low -- ฟาเรนไฮน์
--% Chance of Precip.
Yesterday
High -- | Low -- ฟาเรนไฮน์
Precip. -- นิ้ว
6:37 AM 5:36 PM
ข้างขึ้น, 81% visible
ความดัน 30.18 นิ้ว
ทัศนวิสัย 6.2 ไมล์
เมฆ Few 1000 ft
มีเมฆคลุมเป็นส่วนใหญ่ 2500 ft
อุณหภูมิที่อากาศอาจจับตัวเป็นหยาดน้ำค้าง 53 ฟาเรนไฮน์
ความชื้น 74%
Rainfall 0.00 นิ้ว
Snow Depth Not available.
UV 0.0 out of 12
Pollen Not available.
Air Quality Not available.
Flu Activity Not available.
METAR RCSS 300730Z 08008KT 010V120 9999 VCSH FEW010 BKN025 17/11 Q1022 NOSIG RMK A3020

More Conditions Fewer Conditions

ความดัน 30.18 นิ้ว
ทัศนวิสัย 6.2 ไมล์
เมฆ Few 1000 ft
มีเมฆคลุมเป็นส่วนใหญ่ 2500 ft
อุณหภูมิที่อากาศอาจจับตัวเป็นหยาดน้ำค้าง 53 ฟาเรนไฮน์
ความชื้น 74%
Rainfall 0.00 นิ้ว
Snow Depth Not available.
UV 0.0 out of 12
Pollen Not available.
Air Quality Not available.
Flu Activity Not available.
METAR RCSS 300730Z 08008KT 010V120 9999 VCSH FEW010 BKN025 17/11 Q1022 NOSIG RMK A3020

More Conditions Fewer Conditions

10-Day Weather Forecast

Almanac

ดาราศาสตร์

Jan. 30, 2015 Rise Set
Actual Time
Civil Twilight
Nautical Twilight
Astronomical Twilight
Moon
Length Of Visible Light
ความยาวของวัน
Tomorrow will be .
, % of the Moon is Illuminated

Today's Extremes

Country Highs Country Lows

Community

WunderPhotos

Upload Photos

1,791,726 photos uploaded!

WunderBlogs® & News

Nearby

Air Quality

  Air Quality AQ Index Pollutant
Not available.

Snow Depth

Station Depth Elevation

Earthquake Activity

City Distance Mag. Time & Date
Minimum magnitude displayed is 2.5.

Coastal Water Temperatures

สถานที่ อุณหภูมิ

Nearby Weather Stations